sensor_id;sensor_type;location;lat;lon;timestamp;pressure;altitude;pressure_sealevel;temperature;humidity
6567;BME280;3317;43.994;22.878;2022-09-01T00:01:47;100741.03;;;24.79;65.28
6567;BME280;3317;43.994;22.878;2022-09-01T00:04:16;100732.16;;;24.77;64.95
6567;BME280;3317;43.994;22.878;2022-09-01T00:06:44;100732.63;;;24.74;64.61
6567;BME280;3317;43.994;22.878;2022-09-01T00:09:14;100733.69;;;24.73;63.43
6567;BME280;3317;43.994;22.878;2022-09-01T00:11:44;100724.78;;;24.71;62.06
6567;BME280;3317;43.994;22.878;2022-09-01T00:14:12;100716.53;;;24.59;61.37
6567;BME280;3317;43.994;22.878;2022-09-01T00:16:39;100719.16;;;24.66;61.56
6567;BME280;3317;43.994;22.878;2022-09-01T00:19:09;100722.16;;;24.64;63.21
6567;BME280;3317;43.994;22.878;2022-09-01T00:21:38;100716.03;;;24.62;63.65
6567;BME280;3317;43.994;22.878;2022-09-01T00:24:07;100714.94;;;24.63;64.89
6567;BME280;3317;43.994;22.878;2022-09-01T00:26:35;100719.06;;;24.60;64.50
6567;BME280;3317;43.994;22.878;2022-09-01T00:29:03;100705.50;;;24.47;64.31
6567;BME280;3317;43.994;22.878;2022-09-01T00:31:31;100724.00;;;24.58;65.24
6567;BME280;3317;43.994;22.878;2022-09-01T00:33:59;100711.97;;;24.53;64.54
6567;BME280;3317;43.994;22.878;2022-09-01T00:36:27;100713.44;;;24.55;65.45
6567;BME280;3317;43.994;22.878;2022-09-01T00:38:56;100720.63;;;24.56;66.12
6567;BME280;3317;43.994;22.878;2022-09-01T00:41:27;100723.91;;;24.53;66.43
6567;BME280;3317;43.994;22.878;2022-09-01T00:43:58;100697.97;;;24.42;65.95
6567;BME280;3317;43.994;22.878;2022-09-01T00:46:28;100715.03;;;24.51;65.82
6567;BME280;3317;43.994;22.878;2022-09-01T00:49:00;100715.03;;;24.51;65.68
6567;BME280;3317;43.994;22.878;2022-09-01T00:51:29;100731.06;;;24.49;64.49
6567;BME280;3317;43.994;22.878;2022-09-01T00:53:58;100707.22;;;24.48;65.76
6567;BME280;3317;43.994;22.878;2022-09-01T00:56:26;100709.63;;;24.44;66.85
6567;BME280;3317;43.994;22.878;2022-09-01T00:58:54;100722.28;;;24.40;66.86
6567;BME280;3317;43.994;22.878;2022-09-01T01:01:22;100718.19;;;24.43;66.89
6567;BME280;3317;43.994;22.878;2022-09-01T01:03:49;100718.44;;;24.41;67.53
6567;BME280;3317;43.994;22.878;2022-09-01T01:06:17;100690.09;;;24.22;66.81
6567;BME280;3317;43.994;22.878;2022-09-01T01:08:52;100717.22;;;24.37;66.73
6567;BME280;3317;43.994;22.878;2022-09-01T01:11:27;100712.94;;;24.29;66.90
6567;BME280;3317;43.994;22.878;2022-09-01T01:13:57;100714.63;;;24.30;67.06
6567;BME280;3317;43.994;22.878;2022-09-01T01:16:26;100720.75;;;24.32;67.29
6567;BME280;3317;43.994;22.878;2022-09-01T01:18:55;100715.47;;;24.31;67.66
6567;BME280;3317;43.994;22.878;2022-09-01T01:21:28;100705.63;;;24.23;67.09
6567;BME280;3317;43.994;22.878;2022-09-01T01:24:22;100720.41;;;24.29;67.05
6567;BME280;3317;43.994;22.878;2022-09-01T01:26:49;100705.50;;;24.18;64.54
6567;BME280;3317;43.994;22.878;2022-09-01T01:29:17;100719.47;;;24.23;65.78
6567;BME280;3317;43.994;22.878;2022-09-01T01:31:46;100720.56;;;24.22;66.62
6567;BME280;3317;43.994;22.878;2022-09-01T01:34:15;100713.31;;;24.21;67.04
6567;BME280;3317;43.994;22.878;2022-09-01T01:36:45;100720.56;;;24.22;67.54
6567;BME280;3317;43.994;22.878;2022-09-01T01:39:15;100721.63;;;24.21;67.53
6567;BME280;3317;43.994;22.878;2022-09-01T01:41:45;100721.88;;;24.19;67.68
6567;BME280;3317;43.994;22.878;2022-09-01T01:44:18;100721.88;;;24.19;67.59
6567;BME280;3317;43.994;22.878;2022-09-01T01:46:47;100714.66;;;24.18;67.29
6567;BME280;3317;43.994;22.878;2022-09-01T01:49:23;100727.66;;;24.18;68.05
6567;BME280;3317;43.994;22.878;2022-09-01T01:51:52;100730.91;;;24.15;67.96
6567;BME280;3317;43.994;22.878;2022-09-01T01:54:21;100733.69;;;24.15;67.45
6567;BME280;3317;43.994;22.878;2022-09-01T01:56:50;100735.88;;;24.13;66.51
6567;BME280;3317;43.994;22.878;2022-09-01T01:59:17;100725.88;;;24.12;67.35
6567;BME280;3317;43.994;22.878;2022-09-01T02:01:45;100730.19;;;24.08;67.44
6567;BME280;3317;43.994;22.878;2022-09-01T02:04:16;100739.00;;;24.04;66.69
6567;BME280;3317;43.994;22.878;2022-09-01T02:06:44;100739.88;;;24.05;65.60
6567;BME280;3317;43.994;22.878;2022-09-01T02:09:15;100742.25;;;24.01;65.58
6567;BME280;3317;43.994;22.878;2022-09-01T02:11:42;100737.19;;;23.98;66.54
6567;BME280;3317;43.994;22.878;2022-09-01T02:14:12;100741.88;;;23.98;67.00
6567;BME280;3317;43.994;22.878;2022-09-01T02:16:40;100740.44;;;23.95;66.61
6567;BME280;3317;43.994;22.878;2022-09-01T02:19:08;100739.59;;;23.95;67.31
6567;BME280;3317;43.994;22.878;2022-09-01T02:21:36;100739.84;;;23.93;67.15
6567;BME280;3317;43.994;22.878;2022-09-01T02:24:09;100736.47;;;23.91;67.13
6567;BME280;3317;43.994;22.878;2022-09-01T02:26:41;100740.34;;;23.90;66.99
6567;BME280;3317;43.994;22.878;2022-09-01T02:29:14;100729.75;;;23.87;67.22
6567;BME280;3317;43.994;22.878;2022-09-01T02:31:45;100728.06;;;23.86;67.60
6567;BME280;3317;43.994;22.878;2022-09-01T02:34:12;100736.59;;;23.84;66.38
6567;BME280;3317;43.994;22.878;2022-09-01T02:36:40;100746.00;;;23.83;66.30
6567;BME280;3317;43.994;22.878;2022-09-01T02:39:12;100735.06;;;23.76;66.48
6567;BME280;3317;43.994;22.878;2022-09-01T02:41:40;100740.09;;;23.80;67.30
6567;BME280;3317;43.994;22.878;2022-09-01T02:44:07;100735.66;;;23.79;66.24
6567;BME280;3317;43.994;22.878;2022-09-01T02:46:38;100676.16;;;23.40;67.00
6567;BME280;3317;43.994;22.878;2022-09-01T02:49:11;100743.34;;;23.76;66.96
6567;BME280;3317;43.994;22.878;2022-09-01T02:51:43;100735.56;;;23.73;65.67
6567;BME280;3317;43.994;22.878;2022-09-01T02:54:11;100732.41;;;23.70;66.31
6567;BME280;3317;43.994;22.878;2022-09-01T02:56:39;100733.50;;;23.69;66.89
6567;BME280;3317;43.994;22.878;2022-09-01T02:59:08;100734.59;;;23.68;64.78
6567;BME280;3317;43.994;22.878;2022-09-01T03:01:41;100744.22;;;23.65;65.54
6567;BME280;3317;43.994;22.878;2022-09-01T03:04:12;100754.09;;;23.61;65.90
6567;BME280;3317;43.994;22.878;2022-09-01T03:06:39;100749.03;;;23.58;67.25
6567;BME280;3317;43.994;22.878;2022-09-01T03:09:10;100736.75;;;23.42;67.44
6567;BME280;3317;43.994;22.878;2022-09-01T03:11:41;100741.69;;;23.40;68.02
6567;BME280;3317;43.994;22.878;2022-09-01T03:14:11;100744.81;;;23.43;67.67
6567;BME280;3317;43.994;22.878;2022-09-01T03:16:40;100742.53;;;23.40;66.91
6567;BME280;3317;43.994;22.878;2022-09-01T03:19:08;100726.91;;;23.34;66.38
6567;BME280;3317;43.994;22.878;2022-09-01T03:21:40;100733.41;;;23.40;65.90
6567;BME280;3317;43.994;22.878;2022-09-01T03:24:09;100726.91;;;23.34;67.06
6567;BME280;3317;43.994;22.878;2022-09-01T03:26:39;100734.50;;;23.39;66.44
6567;BME280;3317;43.994;22.878;2022-09-01T03:29:06;100728.09;;;23.38;65.60
6567;BME280;3317;43.994;22.878;2022-09-01T03:31:36;100735.81;;;23.36;67.24
6567;BME280;3317;43.994;22.878;2022-09-01T03:34:05;100731.22;;;23.30;68.39
6567;BME280;3317;43.994;22.878;2022-09-01T03:36:36;100725.53;;;23.25;69.10
6567;BME280;3317;43.994;22.878;2022-09-01T03:39:03;100705.69;;;23.04;69.78
6567;BME280;3317;43.994;22.878;2022-09-01T03:41:31;100721.22;;;23.05;70.31
6567;BME280;3317;43.994;22.878;2022-09-01T03:44:00;100727.19;;;23.02;70.58
6567;BME280;3317;43.994;22.878;2022-09-01T03:46:28;100726.59;;;23.00;69.99
6567;BME280;3317;43.994;22.878;2022-09-01T03:48:57;100717.94;;;22.96;69.36
6567;BME280;3317;43.994;22.878;2022-09-01T03:51:34;100740.56;;;23.05;69.96
6567;BME280;3317;43.994;22.878;2022-09-01T03:54:03;100734.78;;;23.06;69.00
6567;BME280;3317;43.994;22.878;2022-09-01T03:56:31;100731.78;;;23.08;67.49
6567;BME280;3317;43.994;22.878;2022-09-01T03:58:58;100745.97;;;23.12;68.36
6567;BME280;3317;43.994;22.878;2022-09-01T04:01:27;100747.41;;;23.14;67.71
6567;BME280;3317;43.994;22.878;2022-09-01T04:03:55;100743.53;;;23.15;68.83
6567;BME280;3317;43.994;22.878;2022-09-01T04:06:24;100718.91;;;23.02;69.82
6567;BME280;3317;43.994;22.878;2022-09-01T04:09:00;100743.44;;;23.22;70.81
6567;BME280;3317;43.994;22.878;2022-09-01T04:11:36;100699.09;;;23.05;70.85
6567;BME280;3317;43.994;22.878;2022-09-01T04:14:09;100742.75;;;23.27;70.70
6567;BME280;3317;43.994;22.878;2022-09-01T04:16:42;100737.97;;;23.34;70.95
6567;BME280;3317;43.994;22.878;2022-09-01T04:19:37;100718.09;;;23.25;70.77
6567;BME280;3317;43.994;22.878;2022-09-01T04:22:05;100744.47;;;23.40;70.74
6567;BME280;3317;43.994;22.878;2022-09-01T04:24:38;100745.44;;;23.45;70.54
6567;BME280;3317;43.994;22.878;2022-09-01T04:27:10;100724.75;;;23.36;69.97
6567;BME280;3317;43.994;22.878;2022-09-01T04:29:37;100749.97;;;23.52;69.97
6567;BME280;3317;43.994;22.878;2022-09-01T04:32:06;100745.91;;;23.54;70.05
6567;BME280;3317;43.994;22.878;2022-09-01T04:34:38;100751.81;;;23.58;69.91
6567;BME280;3317;43.994;22.878;2022-09-01T04:37:08;100742.41;;;23.59;69.48
6567;BME280;3317;43.994;22.878;2022-09-01T04:39:38;100717.78;;;23.45;68.62
6567;BME280;3317;43.994;22.878;2022-09-01T04:42:13;100751.81;;;23.58;68.47
6567;BME280;3317;43.994;22.878;2022-09-01T04:44:42;100731.72;;;23.51;68.96
6567;BME280;3317;43.994;22.878;2022-09-01T04:47:09;100759.72;;;23.66;69.11
6567;BME280;3317;43.994;22.878;2022-09-01T04:49:41;100762.25;;;23.68;69.69
6567;BME280;3317;43.994;22.878;2022-09-01T04:52:10;100754.78;;;23.68;70.04
6567;BME280;3317;43.994;22.878;2022-09-01T04:54:40;100758.19;;;23.70;70.71
6567;BME280;3317;43.994;22.878;2022-09-01T04:57:09;100754.91;;;23.73;70.55
6567;BME280;3317;43.994;22.878;2022-09-01T04:59:36;100759.97;;;23.76;69.69
6567;BME280;3317;43.994;22.878;2022-09-01T05:02:03;100758.88;;;23.77;68.78
6567;BME280;3317;43.994;22.878;2022-09-01T05:04:34;100762.50;;;23.78;69.48
6567;BME280;3317;43.994;22.878;2022-09-01T05:07:04;100755.50;;;23.75;69.06
6567;BME280;3317;43.994;22.878;2022-09-01T05:09:35;100753.09;;;23.79;69.11
6567;BME280;3317;43.994;22.878;2022-09-01T05:12:05;100760.69;;;23.84;68.96
6567;BME280;3317;43.994;22.878;2022-09-01T05:14:46;100761.28;;;23.86;68.65
6567;BME280;3317;43.994;22.878;2022-09-01T05:17:14;100757.91;;;23.84;69.19
6567;BME280;3317;43.994;22.878;2022-09-01T05:19:46;100755.16;;;23.84;70.10
6567;BME280;3317;43.994;22.878;2022-09-01T05:22:16;100765.81;;;23.92;70.48
6567;BME280;3317;43.994;22.878;2022-09-01T05:24:47;100760.88;;;23.94;70.63
6567;BME280;3317;43.994;22.878;2022-09-01T05:27:16;100758.13;;;23.94;70.23
6567;BME280;3317;43.994;22.878;2022-09-01T05:29:47;100769.31;;;23.99;70.08
6567;BME280;3317;43.994;22.878;2022-09-01T05:32:16;100756.69;;;24.03;69.89
6567;BME280;3317;43.994;22.878;2022-09-01T05:34:44;100763.91;;;24.04;69.11
6567;BME280;3317;43.994;22.878;2022-09-01T05:37:11;100758.38;;;24.04;69.46
6567;BME280;3317;43.994;22.878;2022-09-01T05:39:40;100757.56;;;24.04;69.49
6567;BME280;3317;43.994;22.878;2022-09-01T05:42:08;100755.88;;;24.03;69.24
6567;BME280;3317;43.994;22.878;2022-09-01T05:44:35;100763.78;;;23.99;69.87
6567;BME280;3317;43.994;22.878;2022-09-01T05:47:03;100754.28;;;23.95;70.12
6567;BME280;3317;43.994;22.878;2022-09-01T05:49:33;100752.25;;;23.90;70.22
6567;BME280;3317;43.994;22.878;2022-09-01T05:52:00;100755.34;;;23.94;70.28
6567;BME280;3317;43.994;22.878;2022-09-01T05:54:27;100758.75;;;23.96;69.15
6567;BME280;3317;43.994;22.878;2022-09-01T05:56:56;100759.94;;;23.88;70.64
6567;BME280;3317;43.994;22.878;2022-09-01T05:59:25;100755.63;;;23.81;71.25
6567;BME280;3317;43.994;22.878;2022-09-01T06:01:55;100755.88;;;23.67;71.76
6567;BME280;3317;43.994;22.878;2022-09-01T06:04:23;100749.88;;;23.58;72.07
6567;BME280;3317;43.994;22.878;2022-09-01T06:06:51;100749.63;;;23.60;71.09
6567;BME280;3317;43.994;22.878;2022-09-01T06:09:20;100744.81;;;23.55;71.63
6567;BME280;3317;43.994;22.878;2022-09-01T06:11:48;100752.25;;;23.55;72.06
6567;BME280;3317;43.994;22.878;2022-09-01T06:14:18;100749.38;;;23.49;72.49
6567;BME280;3317;43.994;22.878;2022-09-01T06:16:45;100756.81;;;23.49;72.91
6567;BME280;3317;43.994;22.878;2022-09-01T06:19:14;100756.00;;;23.48;72.47
6567;BME280;3317;43.994;22.878;2022-09-01T06:21:44;100753.09;;;23.43;73.81
6567;BME280;3317;43.994;22.878;2022-09-01T06:24:11;100753.72;;;23.45;72.87
6567;BME280;3317;43.994;22.878;2022-09-01T06:26:38;100724.00;;;23.29;72.33
6567;BME280;3317;43.994;22.878;2022-09-01T06:29:08;100754.81;;;23.44;72.99
6567;BME280;3317;43.994;22.878;2022-09-01T06:31:41;100749.13;;;23.39;73.56
6567;BME280;3317;43.994;22.878;2022-09-01T06:34:12;100754.69;;;23.51;71.85
6567;BME280;3317;43.994;22.878;2022-09-01T06:36:43;100727.56;;;23.17;72.11
6567;BME280;3317;43.994;22.878;2022-09-01T06:39:11;100761.66;;;23.54;72.27
6567;BME280;3317;43.994;22.878;2022-09-01T06:41:44;100770.78;;;23.54;72.93
6567;BME280;3317;43.994;22.878;2022-09-01T06:44:16;100776.22;;;23.61;73.28
6567;BME280;3317;43.994;22.878;2022-09-01T06:46:48;100776.22;;;23.61;73.79
6567;BME280;3317;43.994;22.878;2022-09-01T06:49:15;100782.34;;;23.63;73.12
6567;BME280;3317;43.994;22.878;2022-09-01T06:51:42;100772.25;;;23.57;73.74
6567;BME280;3317;43.994;22.878;2022-09-01T06:54:14;100773.66;;;23.59;73.74
6567;BME280;3317;43.994;22.878;2022-09-01T06:56:42;100774.63;;;23.65;72.85
6567;BME280;3317;43.994;22.878;2022-09-01T06:59:09;100734.50;;;23.39;72.20
6567;BME280;3317;43.994;22.878;2022-09-01T07:01:37;100776.31;;;23.78;72.13
6567;BME280;3317;43.994;22.878;2022-09-01T07:04:07;100753.22;;;23.60;72.63
6567;BME280;3317;43.994;22.878;2022-09-01T07:06:35;100782.59;;;23.73;73.42
6567;BME280;3317;43.994;22.878;2022-09-01T07:09:02;100787.25;;;23.73;72.64
6567;BME280;3317;43.994;22.878;2022-09-01T07:11:32;100775.81;;;23.69;72.51
6567;BME280;3317;43.994;22.878;2022-09-01T07:14:01;100780.41;;;23.75;71.73
6567;BME280;3317;43.994;22.878;2022-09-01T07:16:31;100801.81;;;23.80;72.43
6567;BME280;3317;43.994;22.878;2022-09-01T07:19:07;100790.41;;;23.76;73.15
6567;BME280;3317;43.994;22.878;2022-09-01T07:21:40;100798.22;;;23.68;73.70
6567;BME280;3317;43.994;22.878;2022-09-01T07:24:07;100788.09;;;23.61;73.82
6567;BME280;3317;43.994;22.878;2022-09-01T07:26:35;100800.00;;;23.74;73.20
6567;BME280;3317;43.994;22.878;2022-09-01T07:29:04;100799.88;;;23.81;71.29
6567;BME280;3317;43.994;22.878;2022-09-01T07:31:34;100800.25;;;23.84;72.18
6567;BME280;3317;43.994;22.878;2022-09-01T07:34:05;100796.53;;;23.79;72.63
6567;BME280;3317;43.994;22.878;2022-09-01T07:36:40;100804.44;;;23.75;73.43
6567;BME280;3317;43.994;22.878;2022-09-01T07:39:07;100809.97;;;23.75;73.17
6567;BME280;3317;43.994;22.878;2022-09-01T07:41:37;100805.31;;;23.75;73.24
6567;BME280;3317;43.994;22.878;2022-09-01T07:44:07;100799.41;;;23.84;72.16
6567;BME280;3317;43.994;22.878;2022-09-01T07:46:35;100794.59;;;23.91;71.99
6567;BME280;3317;43.994;22.878;2022-09-01T07:49:02;100801.44;;;24.00;71.02
6567;BME280;3317;43.994;22.878;2022-09-01T07:51:30;100799.28;;;24.02;71.18
6567;BME280;3317;43.994;22.878;2022-09-01T07:54:01;100806.53;;;24.03;71.43
6567;BME280;3317;43.994;22.878;2022-09-01T07:56:31;100800.97;;;24.03;71.81
6567;BME280;3317;43.994;22.878;2022-09-01T07:59:06;100799.50;;;24.01;71.93
6567;BME280;3317;43.994;22.878;2022-09-01T08:01:34;100779.06;;;23.90;71.85
6567;BME280;3317;43.994;22.878;2022-09-01T08:04:01;100801.13;;;24.09;71.48
6567;BME280;3317;43.994;22.878;2022-09-01T08:06:29;100794.97;;;24.07;71.74
6567;BME280;3317;43.994;22.878;2022-09-01T08:08:58;100778.84;;;24.03;71.53
6567;BME280;3317;43.994;22.878;2022-09-01T08:11:28;100794.94;;;24.18;71.74
6567;BME280;3317;43.994;22.878;2022-09-01T08:13:56;100783.84;;;24.30;70.35
6567;BME280;3317;43.994;22.878;2022-09-01T08:16:24;100786.38;;;24.32;70.53
6567;BME280;3317;43.994;22.878;2022-09-01T08:18:55;100780.44;;;24.40;70.34
6567;BME280;3317;43.994;22.878;2022-09-01T08:21:24;100748.13;;;24.17;69.87
6567;BME280;3317;43.994;22.878;2022-09-01T08:23:53;100782.50;;;24.33;70.47
6567;BME280;3317;43.994;22.878;2022-09-01T08:26:23;100780.34;;;24.35;70.34
6567;BME280;3317;43.994;22.878;2022-09-01T08:28:53;100789.00;;;24.39;70.57
6567;BME280;3317;43.994;22.878;2022-09-01T08:31:21;100795.84;;;24.48;69.61
6567;BME280;3317;43.994;22.878;2022-09-01T08:33:49;100785.13;;;24.40;69.60
6567;BME280;3317;43.994;22.878;2022-09-01T08:36:16;100795.94;;;24.53;69.24
6567;BME280;3317;43.994;22.878;2022-09-01T08:38:45;100802.19;;;24.60;68.77
6567;BME280;3317;43.994;22.878;2022-09-01T08:41:16;100798.25;;;24.73;68.26
6567;BME280;3317;43.994;22.878;2022-09-01T08:43:54;100747.81;;;24.42;68.23
6567;BME280;3317;43.994;22.878;2022-09-01T08:46:27;100800.16;;;24.85;66.94
6567;BME280;3317;43.994;22.878;2022-09-01T08:48:57;100782.50;;;24.74;67.82
6567;BME280;3317;43.994;22.878;2022-09-01T08:51:33;100798.00;;;24.87;67.36
6567;BME280;3317;43.994;22.878;2022-09-01T08:54:08;100796.16;;;24.93;67.13
6567;BME280;3317;43.994;22.878;2022-09-01T08:56:39;100796.00;;;24.99;67.02
6567;BME280;3317;43.994;22.878;2022-09-01T08:59:09;100785.56;;;24.89;67.10
6567;BME280;3317;43.994;22.878;2022-09-01T09:01:41;100789.94;;;25.02;67.10
6567;BME280;3317;43.994;22.878;2022-09-01T09:04:24;100779.53;;;24.93;67.89
6567;BME280;3317;43.994;22.878;2022-09-01T09:07:00;100791.91;;;25.02;67.55
6567;BME280;3317;43.994;22.878;2022-09-01T09:09:37;100793.50;;;25.15;68.10
6567;BME280;3317;43.994;22.878;2022-09-01T09:12:25;100798.88;;;25.22;67.73
6567;BME280;3317;43.994;22.878;2022-09-01T09:15:06;100796.78;;;25.29;67.12
6567;BME280;3317;43.994;22.878;2022-09-01T09:17:40;100794.69;;;25.36;66.90
6567;BME280;3317;43.994;22.878;2022-09-01T09:20:09;100787.44;;;25.35;66.96
6567;BME280;3317;43.994;22.878;2022-09-01T09:22:37;100789.13;;;25.36;66.46
6567;BME280;3317;43.994;22.878;2022-09-01T09:25:08;100793.88;;;25.53;66.24
6567;BME280;3317;43.994;22.878;2022-09-01T09:27:37;100786.94;;;25.72;65.74
6567;BME280;3317;43.994;22.878;2022-09-01T09:30:09;100793.31;;;25.90;65.09
6567;BME280;3317;43.994;22.878;2022-09-01T09:32:49;100787.97;;;26.06;64.56
6567;BME280;3317;43.994;22.878;2022-09-01T09:35:21;100763.91;;;26.11;63.83
6567;BME280;3317;43.994;22.878;2022-09-01T09:37:49;100773.69;;;26.36;64.41
6567;BME280;3317;43.994;22.878;2022-09-01T09:40:19;100765.78;;;26.50;63.52
6567;BME280;3317;43.994;22.878;2022-09-01T09:43:03;100752.88;;;26.66;63.19
6567;BME280;3317;43.994;22.878;2022-09-01T09:45:35;100751.59;;;26.79;61.94
6567;BME280;3317;43.994;22.878;2022-09-01T09:48:07;100738.13;;;26.88;61.90
6567;BME280;3317;43.994;22.878;2022-09-01T09:50:36;100737.09;;;26.99;60.29
6567;BME280;3317;43.994;22.878;2022-09-01T09:53:14;100744.72;;;27.15;60.24
6567;BME280;3317;43.994;22.878;2022-09-01T09:55:58;100746.66;;;27.47;61.54
6567;BME280;3317;43.994;22.878;2022-09-01T09:58:32;100747.91;;;27.66;59.75
6567;BME280;3317;43.994;22.878;2022-09-01T10:01:06;100734.47;;;27.53;57.68
6567;BME280;3317;43.994;22.878;2022-09-01T10:03:44;100737.06;;;27.65;57.49
6567;BME280;3317;43.994;22.878;2022-09-01T10:06:28;100746.88;;;27.78;57.62
6567;BME280;3317;43.994;22.878;2022-09-01T10:08:59;100748.31;;;27.86;57.14
6567;BME280;3317;43.994;22.878;2022-09-01T10:11:30;100738.53;;;27.83;56.54
6567;BME280;3317;43.994;22.878;2022-09-01T10:13:59;100736.41;;;28.01;56.64
6567;BME280;3317;43.994;22.878;2022-09-01T10:16:28;100732.50;;;28.02;56.34
6567;BME280;3317;43.994;22.878;2022-09-01T10:18:58;100738.34;;;27.95;55.68
6567;BME280;3317;43.994;22.878;2022-09-01T10:21:31;100729.19;;;28.05;56.05
6567;BME280;3317;43.994;22.878;2022-09-01T10:24:00;100721.69;;;28.16;56.12
6567;BME280;3317;43.994;22.878;2022-09-01T10:26:31;100722.06;;;28.35;55.53
6567;BME280;3317;43.994;22.878;2022-09-01T10:29:05;100719.59;;;28.44;55.58
6567;BME280;3317;43.994;22.878;2022-09-01T10:31:36;100714.31;;;28.58;55.37
6567;BME280;3317;43.994;22.878;2022-09-01T10:34:04;100709.03;;;28.61;54.58
6567;BME280;3317;43.994;22.878;2022-09-01T10:36:34;100700.41;;;28.78;54.96
6567;BME280;3317;43.994;22.878;2022-09-01T10:39:02;100718.28;;;29.08;54.52
6567;BME280;3317;43.994;22.878;2022-09-01T10:41:49;100725.78;;;29.29;54.38
6567;BME280;3317;43.994;22.878;2022-09-01T10:44:23;100717.41;;;29.39;53.18
6567;BME280;3317;43.994;22.878;2022-09-01T10:46:57;100712.66;;;29.50;52.64
6567;BME280;3317;43.994;22.878;2022-09-01T10:55:44;100719.03;;;29.76;51.15
6567;BME280;3317;43.994;22.878;2022-09-01T10:58:27;100699.75;;;29.80;50.95
6567;BME280;3317;43.994;22.878;2022-09-01T11:00:56;100710.31;;;29.93;50.65
6567;BME280;3317;43.994;22.878;2022-09-01T11:03:38;100707.75;;;29.97;49.83
6567;BME280;3317;43.994;22.878;2022-09-01T11:06:06;100686.09;;;29.68;49.76
6567;BME280;3317;43.994;22.878;2022-09-01T11:08:42;100706.25;;;29.55;50.09
6567;BME280;3317;43.994;22.878;2022-09-01T11:11:21;100703.72;;;29.37;50.82
6567;BME280;3317;43.994;22.878;2022-09-01T11:13:52;100705.97;;;29.35;51.05
6567;BME280;3317;43.994;22.878;2022-09-01T11:16:32;100701.78;;;29.43;51.60
6567;BME280;3317;43.994;22.878;2022-09-01T11:19:29;100703.19;;;29.56;51.23
6567;BME280;3317;43.994;22.878;2022-09-01T11:28:08;100698.16;;;29.37;51.03
6567;BME280;3317;43.994;22.878;2022-09-01T11:30:42;100677.81;;;29.27;51.09
6567;BME280;3317;43.994;22.878;2022-09-01T11:33:38;100667.25;;;29.08;50.94
6567;BME280;3317;43.994;22.878;2022-09-01T11:36:25;100689.53;;;29.13;51.30
6567;BME280;3317;43.994;22.878;2022-09-01T11:39:03;100684.81;;;29.03;51.61
6567;BME280;3317;43.994;22.878;2022-09-01T11:41:42;100674.78;;;28.97;51.46
6567;BME280;3317;43.994;22.878;2022-09-01T11:44:13;100667.25;;;28.98;51.52
6567;BME280;3317;43.994;22.878;2022-09-01T11:46:41;100665.28;;;29.03;51.58
6567;BME280;3317;43.994;22.878;2022-09-01T11:49:29;100670.56;;;29.26;51.54
6567;BME280;3317;43.994;22.878;2022-09-01T11:51:59;100644.31;;;29.27;51.60
6567;BME280;3317;43.994;22.878;2022-09-01T11:54:29;100628.44;;;29.27;51.53
6567;BME280;3317;43.994;22.878;2022-09-01T11:57:16;100654.06;;;29.55;51.12
6567;BME280;3317;43.994;22.878;2022-09-01T11:59:43;100658.47;;;29.61;50.88
6567;BME280;3317;43.994;22.878;2022-09-01T12:02:16;100661.31;;;29.51;50.17
6567;BME280;3317;43.994;22.878;2022-09-01T12:04:43;100651.81;;;29.36;50.45
6567;BME280;3317;43.994;22.878;2022-09-01T12:07:21;100657.69;;;29.40;50.69
6567;BME280;3317;43.994;22.878;2022-09-01T12:09:49;100639.00;;;29.41;51.41
6567;BME280;3317;43.994;22.878;2022-09-01T12:12:31;100642.88;;;29.55;51.31
6567;BME280;3317;43.994;22.878;2022-09-01T12:15:03;100638.38;;;29.59;50.93
6567;BME280;3317;43.994;22.878;2022-09-01T12:17:31;100637.84;;;29.52;50.59
6567;BME280;3317;43.994;22.878;2022-09-01T12:20:17;100636.78;;;29.43;50.15
6567;BME280;3317;43.994;22.878;2022-09-01T12:22:46;100625.59;;;29.48;50.73
6567;BME280;3317;43.994;22.878;2022-09-01T12:25:19;100630.28;;;29.58;51.27
6567;BME280;3317;43.994;22.878;2022-09-01T12:27:48;100633.63;;;29.65;51.26
6567;BME280;3317;43.994;22.878;2022-09-01T12:30:22;100611.03;;;29.67;50.60
6567;BME280;3317;43.994;22.878;2022-09-01T12:32:49;100615.94;;;29.85;50.47
6567;BME280;3317;43.994;22.878;2022-09-01T12:35:20;100620.31;;;30.02;51.36
6567;BME280;3317;43.994;22.878;2022-09-01T12:37:49;100613.28;;;30.15;50.49
6567;BME280;3317;43.994;22.878;2022-09-01T12:40:23;100611.84;;;30.23;50.94
6567;BME280;3317;43.994;22.878;2022-09-01T12:42:52;100621.78;;;30.39;50.42
6567;BME280;3317;43.994;22.878;2022-09-01T12:45:37;100611.72;;;30.38;48.50
6567;BME280;3317;43.994;22.878;2022-09-01T12:48:05;100625.16;;;30.36;48.30
6567;BME280;3317;43.994;22.878;2022-09-01T12:53:28;100611.38;;;30.50;49.05
6567;BME280;3317;43.994;22.878;2022-09-01T12:56:03;100613.22;;;30.60;48.73
6567;BME280;3317;43.994;22.878;2022-09-01T12:58:32;100620.38;;;30.76;49.32
6567;BME280;3317;43.994;22.878;2022-09-01T13:01:03;100606.84;;;30.89;48.91
6567;BME280;3317;43.994;22.878;2022-09-01T13:03:33;100608.41;;;31.00;48.62
6567;BME280;3317;43.994;22.878;2022-09-01T13:06:01;100613.84;;;31.16;48.70
6567;BME280;3317;43.994;22.878;2022-09-01T13:08:31;100617.22;;;31.13;46.30
6567;BME280;3317;43.994;22.878;2022-09-01T13:11:02;100612.88;;;31.01;45.95
6567;BME280;3317;43.994;22.878;2022-09-01T13:13:30;100603.06;;;31.04;45.84
6567;BME280;3317;43.994;22.878;2022-09-01T13:16:00;100607.28;;;31.01;45.82
6567;BME280;3317;43.994;22.878;2022-09-01T13:18:37;100570.09;;;30.71;45.36
6567;BME280;3317;43.994;22.878;2022-09-01T13:21:05;100579.31;;;30.72;45.24
6567;BME280;3317;43.994;22.878;2022-09-01T13:23:34;100610.84;;;30.77;45.49
6567;BME280;3317;43.994;22.878;2022-09-01T13:26:01;100607.28;;;30.72;45.84
6567;BME280;3317;43.994;22.878;2022-09-01T13:28:29;100601.94;;;30.75;46.51
6567;BME280;3317;43.994;22.878;2022-09-01T13:30:58;100598.72;;;30.87;47.06
6567;BME280;3317;43.994;22.878;2022-09-01T13:33:26;100603.97;;;30.94;46.45
6567;BME280;3317;43.994;22.878;2022-09-01T13:35:53;100548.91;;;30.65;46.07